Time;durP1;ratioP1;P1;durP2;ratioP2;P2;SDS_P1;SDS_P2;PMS_P1;PMS_P2;Temp;Humidity;BMP_temperature;BMP_pressure;BME280_temperature;BME280_humidity;BME280_pressure;Samples;Min_cycle;Max_cycle;Signal;HPM_P1;HPM_P2
2022/01/24 00:00:52;;;;;;;8.85;6.90;;;;;;;3.72;86.83;99749.53;5063702;23;20181;-90
2022/01/24 00:02:56;;;;;;;9.85;6.82;;;;;;;3.63;85.39;99758.28;5040135;23;20230;-90
2022/01/24 00:04:59;;;;;;;9.32;5.65;;;;;;;3.50;86.72;99761.91;5040490;23;20177;-90
2022/01/24 00:07:03;;;;;;;9.15;6.13;;;;;;;3.43;85.96;99762.88;5064815;23;20173;-90
2022/01/24 00:09:07;;;;;;;12.70;6.80;;;;;;;3.39;86.94;99763.78;5062909;23;20243;-90
2022/01/24 00:11:14;;;;;;;10.82;7.65;;;;;;;3.32;87.29;99759.56;5040302;23;20448;-90
2022/01/24 00:15:54;;;;;;;14.27;8.60;;;;;;;3.23;87.87;99756.28;4994319;23;20649;-92
2022/01/24 00:18:05;;;;;;;20.30;8.65;;;;;;;3.14;87.92;99748.66;5040813;23;20165;-90
2022/01/24 00:27:12;;;;;;;11.73;8.48;;;;;;;2.98;87.81;99740.28;5039203;23;20174;-90
2022/01/24 00:29:17;;;;;;;16.83;8.65;;;;;;;2.95;87.69;99745.47;5039663;23;20234;-91
2022/01/24 00:31:22;;;;;;;15.27;7.80;;;;;;;2.92;87.71;99747.22;5064513;23;20211;-90
2022/01/24 00:33:25;;;;;;;11.88;7.80;;;;;;;2.92;88.23;99744.66;5063635;23;20177;-91
2022/01/24 00:35:28;;;;;;;13.80;9.02;;;;;;;2.88;88.10;99743.81;5063679;23;20665;-90
2022/01/24 00:37:33;;;;;;;10.57;7.50;;;;;;;2.88;88.35;99742.97;5064150;23;20173;-90
2022/01/24 00:39:37;;;;;;;12.50;8.20;;;;;;;2.89;88.69;99745.53;5038815;23;20511;-90
2022/01/24 00:41:47;;;;;;;9.25;7.43;;;;;;;2.91;88.21;99748.94;5064642;23;20180;-91
2022/01/24 00:44:07;;;;;;;10.98;8.00;;;;;;;2.86;88.29;99737.84;5063239;23;20176;-90
2022/01/24 00:46:19;;;;;;;12.20;7.60;;;;;;;2.82;88.70;99743.03;5063860;23;20172;-90
2022/01/24 00:48:34;;;;;;;11.55;7.93;;;;;;;2.78;88.70;99745.66;5039854;23;20639;-91
2022/01/24 00:53:15;;;;;;;10.73;8.35;;;;;;;2.68;88.69;99744.91;5088954;23;20176;-90
2022/01/24 00:55:18;;;;;;;13.07;8.82;;;;;;;2.69;88.08;99745.75;5062033;23;20172;-91
2022/01/24 00:57:22;;;;;;;21.27;11.15;;;;;;;2.57;88.49;99741.63;5088716;23;20176;-90
2022/01/24 00:59:25;;;;;;;22.55;12.77;;;;;;;2.54;88.92;99736.50;5061783;23;20201;-90
2022/01/24 01:01:28;;;;;;;15.32;10.40;;;;;;;2.57;89.33;99736.47;5039265;23;20321;-91
2022/01/24 01:03:34;;;;;;;21.42;10.77;;;;;;;2.56;89.58;99741.63;5039995;23;20614;-91
2022/01/24 01:05:53;;;;;;;13.30;9.52;;;;;;;2.44;89.89;99740.03;5063916;23;20632;-91
2022/01/24 01:08:02;;;;;;;11.82;7.55;;;;;;;2.42;90.04;99738.31;5088167;23;20180;-90
2022/01/24 01:19:28;;;;;;;10.93;7.47;;;;;;;2.48;90.38;99733.13;5062584;23;20206;-91
2022/01/24 01:21:31;;;;;;;10.20;6.53;;;;;;;2.51;90.68;99741.69;5039505;23;20192;-90
2022/01/24 01:23:38;;;;;;;10.18;6.88;;;;;;;2.55;90.81;99740.75;5064100;23;20188;-90
2022/01/24 01:25:42;;;;;;;10.88;7.00;;;;;;;2.61;91.28;99743.28;5089123;23;20530;-91
2022/01/24 01:27:48;;;;;;;9.80;7.05;;;;;;;2.70;91.26;99739.75;5039947;23;20232;-90
2022/01/24 01:29:57;;;;;;;8.57;7.20;;;;;;;2.74;91.08;99743.97;5038700;23;20252;-91
2022/01/24 01:32:11;;;;;;;10.55;6.90;;;;;;;2.77;90.59;99742.25;5039972;23;20265;-91
2022/01/24 01:34:30;;;;;;;9.30;6.43;;;;;;;2.85;90.82;99743.00;5063406;23;20177;-90
2022/01/24 01:52:30;;;;;;;9.70;6.88;;;;;;;2.93;89.48;99736.03;5095012;23;20250;-90
2022/01/24 01:54:52;;;;;;;9.68;6.63;;;;;;;2.94;89.68;99733.44;5094348;23;20189;-90
2022/01/24 01:56:56;;;;;;;9.63;7.10;;;;;;;2.94;89.98;99732.59;5069753;23;20693;-91
2022/01/24 01:58:59;;;;;;;11.25;7.03;;;;;;;2.96;89.88;99730.84;5094056;23;20581;-91
2022/01/24 02:01:04;;;;;;;9.75;6.80;;;;;;;3.02;90.35;99735.91;5093701;23;20588;-90
2022/01/24 02:03:08;;;;;;;10.45;7.40;;;;;;;3.10;89.91;99736.69;5121249;23;20217;-90
2022/01/24 02:05:12;;;;;;;9.95;7.20;;;;;;;3.09;89.56;99727.25;5069417;23;20594;-90
2022/01/24 02:07:17;;;;;;;10.65;6.60;;;;;;;3.09;89.77;99725.53;5094244;23;20172;-91
2022/01/24 02:09:22;;;;;;;10.80;7.03;;;;;;;3.14;89.50;99734.03;5069119;23;20646;-90
2022/01/24 02:11:26;;;;;;;11.10;7.22;;;;;;;3.17;89.08;99728.84;5068896;23;20191;-90
2022/01/24 02:13:30;;;;;;;9.55;7.10;;;;;;;3.16;89.92;99734.00;5078024;23;20669;-91
2022/01/24 02:15:43;;;;;;;10.90;8.10;;;;;;;3.15;90.17;99727.19;5093214;23;20295;-91
2022/01/24 02:17:58;;;;;;;11.50;7.65;;;;;;;3.16;89.76;99711.69;5070433;23;20229;-90
2022/01/24 02:20:25;;;;;;;9.40;7.07;;;;;;;3.14;89.41;99716.00;5069126;23;20168;-90
2022/01/24 02:24:55;;;;;;;10.32;7.55;;;;;;;3.23;90.06;99717.63;5067041;23;20185;-90
2022/01/24 02:26:59;;;;;;;8.85;6.18;;;;;;;3.25;89.63;99709.00;5095685;23;20179;-90
2022/01/24 02:29:10;;;;;;;9.45;7.13;;;;;;;3.28;89.58;99703.81;5044961;23;20200;-91
2022/01/24 02:31:35;;;;;;;8.82;7.28;;;;;;;3.31;89.59;99702.03;5069128;23;20632;-91
2022/01/24 02:33:39;;;;;;;9.63;7.40;;;;;;;3.32;89.03;99696.00;5069076;23;20199;-90
2022/01/24 02:35:42;;;;;;;10.20;7.78;;;;;;;3.34;89.83;99694.25;5045175;23;20181;-90
2022/01/24 02:37:46;;;;;;;12.60;8.82;;;;;;;3.41;89.69;99695.88;5044920;23;20185;-90
2022/01/24 02:39:55;;;;;;;11.10;8.05;;;;;;;3.43;88.78;99699.28;5044285;23;20292;-90
2022/01/24 02:49:04;;;;;;;10.25;7.97;;;;;;;3.63;89.45;99676.63;5067627;23;20177;-90
2022/01/24 02:51:27;;;;;;;10.25;7.68;;;;;;;3.62;88.55;99674.06;5020651;23;20293;-90
2022/01/24 02:53:33;;;;;;;10.65;7.55;;;;;;;3.56;89.02;99680.16;5040652;23;20169;-89
2022/01/24 02:55:37;;;;;;;13.68;8.02;;;;;;;3.58;88.84;99681.00;5039139;23;20181;-90
2022/01/24 02:57:40;;;;;;;11.57;8.18;;;;;;;3.59;89.16;99674.09;5015844;23;20608;-90
2022/01/24 02:59:44;;;;;;;11.93;7.75;;;;;;;3.67;88.97;99677.41;5038241;23;20716;-90
2022/01/24 03:01:47;;;;;;;9.70;7.72;;;;;;;3.73;88.88;99680.75;5039010;23;20188;-90
2022/01/24 03:03:50;;;;;;;10.32;7.50;;;;;;;3.75;89.37;99686.75;5016711;23;20587;-90
2022/01/24 03:05:53;;;;;;;9.68;7.38;;;;;;;3.82;88.83;99683.19;5039406;23;20697;-90
2022/01/24 03:07:57;;;;;;;10.10;7.78;;;;;;;3.82;88.71;99680.63;5039395;23;20268;-90
2022/01/24 03:10:08;;;;;;;10.05;7.50;;;;;;;3.82;89.13;99672.88;5064136;23;20568;-90
2022/01/24 03:12:14;;;;;;;10.55;8.15;;;;;;;3.82;88.61;99670.28;5016673;23;20253;-90
2022/01/24 03:14:19;;;;;;;10.40;7.28;;;;;;;3.85;88.66;99678.00;5016131;23;20563;-90
2022/01/24 03:16:22;;;;;;;10.45;7.88;;;;;;;3.84;88.64;99671.94;5038641;23;20177;-90
2022/01/24 03:18:25;;;;;;;9.77;7.13;;;;;;;3.87;88.90;99674.47;5064847;23;20232;-90
2022/01/24 03:20:28;;;;;;;10.07;7.90;;;;;;;3.88;89.28;99677.94;5038533;23;20567;-90
2022/01/24 03:22:32;;;;;;;10.68;7.30;;;;;;;3.87;88.96;99686.53;5064882;23;20184;-90
2022/01/24 03:24:35;;;;;;;9.35;7.00;;;;;;;3.84;89.02;99690.00;5064683;23;20260;-90
2022/01/24 03:26:39;;;;;;;8.43;6.60;;;;;;;3.84;88.56;99684.84;5039565;23;20264;-90
2022/01/24 03:28:43;;;;;;;9.80;6.90;;;;;;;3.83;88.37;99690.03;5015537;23;20177;-90
2022/01/24 03:30:46;;;;;;;8.52;6.78;;;;;;;3.86;89.14;99684.81;5015036;23;20186;-90
2022/01/24 03:32:49;;;;;;;9.45;6.55;;;;;;;3.83;89.45;99674.56;5039172;23;20181;-90
2022/01/24 03:34:52;;;;;;;10.88;8.07;;;;;;;3.82;89.00;99683.19;5016892;23;20585;-90
2022/01/24 03:36:55;;;;;;;12.25;7.50;;;;;;;3.86;89.55;99680.53;5040705;23;20185;-90
2022/01/24 03:38:59;;;;;;;9.45;6.60;;;;;;;3.91;89.75;99683.88;5016439;23;20225;-90
2022/01/24 03:41:02;;;;;;;8.75;6.63;;;;;;;3.91;89.29;99683.00;5014807;23;20178;-90
2022/01/24 03:43:07;;;;;;;10.10;6.90;;;;;;;3.91;89.25;99677.84;5039617;23;20661;-90
2022/01/24 03:45:11;;;;;;;10.48;7.20;;;;;;;3.93;89.24;99681.28;5038681;23;20181;-90
2022/01/24 03:47:30;;;;;;;8.80;6.55;;;;;;;3.92;88.96;99679.56;5063836;23;20178;-90
2022/01/24 03:49:49;;;;;;;9.80;6.68;;;;;;;3.89;89.33;99671.88;5064549;23;20500;-90
2022/01/24 03:51:52;;;;;;;9.88;6.80;;;;;;;3.91;90.20;99678.72;5015937;23;20627;-90
2022/01/24 03:53:55;;;;;;;10.27;6.80;;;;;;;3.92;88.83;99680.41;5039630;23;20192;-90
2022/01/24 03:55:58;;;;;;;12.32;7.20;;;;;;;3.91;90.01;99678.72;5065023;23;20252;-90
2022/01/24 03:58:02;;;;;;;11.30;7.75;;;;;;;3.93;89.75;99674.38;5015868;23;20273;-90
2022/01/24 04:00:09;;;;;;;10.23;6.80;;;;;;;3.92;88.78;99680.41;5014752;23;20738;-90
2022/01/24 04:02:15;;;;;;;8.63;6.35;;;;;;;3.92;89.79;99667.50;5039539;23;20332;-90
2022/01/24 04:04:18;;;;;;;11.60;7.05;;;;;;;3.97;89.61;99672.59;5039465;23;20184;-90
2022/01/24 04:06:22;;;;;;;9.70;6.90;;;;;;;3.95;88.82;99658.88;5039219;23;20453;-90
2022/01/24 04:08:25;;;;;;;10.00;7.30;;;;;;;3.97;89.32;99667.44;5016349;23;20205;-90
2022/01/24 04:10:39;;;;;;;11.90;7.60;;;;;;;3.94;89.60;99673.50;5015389;23;20170;-90
2022/01/24 04:12:43;;;;;;;9.70;7.13;;;;;;;3.96;90.15;99670.91;5015539;23;20201;-90
2022/01/24 04:15:09;;;;;;;8.50;6.00;;;;;;;3.98;90.13;99672.56;5065041;23;20386;-90
2022/01/24 04:17:24;;;;;;;8.95;7.03;;;;;;;4.00;89.78;99672.53;5039280;23;20185;-90
2022/01/24 04:21:18;;;;;;;9.15;6.47;;;;;;;4.00;89.91;99677.69;5014514;23;20196;-90
2022/01/24 04:21:50;;;;;;;10.63;7.47;;;;;;;4.03;89.66;99669.91;5015963;23;20184;-90
2022/01/24 04:23:58;;;;;;;10.35;6.97;;;;;;;4.02;90.11;99663.91;5039279;23;20300;-89
2022/01/24 04:26:01;;;;;;;10.27;7.00;;;;;;;4.04;90.30;99669.03;5015173;23;20178;-90
2022/01/24 04:28:05;;;;;;;9.25;6.60;;;;;;;4.04;90.24;99669.88;5038811;23;20276;-90
2022/01/24 04:30:09;;;;;;;11.00;7.97;;;;;;;4.08;90.56;99671.53;5037454;23;20265;-90
2022/01/24 04:32:14;;;;;;;8.50;6.72;;;;;;;4.10;89.53;99674.09;5039354;23;20537;-90
2022/01/24 04:34:17;;;;;;;9.82;6.90;;;;;;;4.12;90.60;99672.31;5038980;23;20182;-90
2022/01/24 04:36:22;;;;;;;12.23;8.27;;;;;;;4.10;88.90;99674.94;5015052;23;20209;-90
2022/01/24 04:38:25;;;;;;;13.30;8.68;;;;;;;4.13;89.89;99672.31;5039044;23;20260;-90
2022/01/24 04:40:29;;;;;;;12.70;8.75;;;;;;;4.17;88.99;99671.38;5013914;23;20637;-90
2022/01/24 04:42:43;;;;;;;11.70;9.18;;;;;;;4.18;89.16;99667.94;5039267;23;20178;-90
2022/01/24 04:44:56;;;;;;;10.43;8.23;;;;;;;4.20;88.92;99666.16;5014655;23;20196;-91
2022/01/24 04:47:12;;;;;;;11.02;8.15;;;;;;;4.28;89.02;99680.66;5015286;23;20182;-90
2022/01/24 04:51:52;;;;;;;11.52;8.95;;;;;;;4.37;88.53;99685.63;5015145;23;20178;-90
2022/01/24 04:56:12;;;;;;;10.45;7.88;;;;;;;4.41;88.57;99682.09;5038536;23;20265;-90
2022/01/24 04:58:15;;;;;;;10.07;7.95;;;;;;;4.40;88.75;99679.56;5038950;23;20268;-90
2022/01/24 05:00:19;;;;;;;9.88;8.27;;;;;;;4.39;88.90;99691.63;5038009;23;20534;-90
2022/01/24 05:02:24;;;;;;;13.77;8.20;;;;;;;4.40;87.91;99695.88;5015668;23;20188;-90
2022/01/24 05:04:28;;;;;;;11.77;9.10;;;;;;;4.41;87.69;99682.09;5064276;23;20594;-90
2022/01/24 05:06:31;;;;;;;9.70;7.80;;;;;;;4.41;88.22;99684.69;5015564;23;20182;-90
2022/01/24 05:08:35;;;;;;;10.45;8.00;;;;;;;4.39;87.68;99685.59;5039400;23;20515;-90
2022/01/24 05:10:50;;;;;;;10.93;7.70;;;;;;;4.40;88.25;99682.97;5037328;23;20269;-90
2022/01/24 05:24:40;;;;;;;10.63;8.32;;;;;;;4.55;86.34;99698.19;5015745;23;20655;-90
2022/01/24 05:26:43;;;;;;;8.90;8.00;;;;;;;4.58;87.87;99689.53;5015218;23;20591;-90
2022/01/24 05:28:46;;;;;;;11.00;8.65;;;;;;;4.58;87.22;99695.53;5039064;23;20211;-90
2022/01/24 05:30:51;;;;;;;11.80;8.63;;;;;;;4.59;87.21;99697.25;5038367;23;20185;-90
2022/01/24 05:32:54;;;;;;;11.80;9.00;;;;;;;4.60;87.23;99692.94;5065084;23;20183;-90
2022/01/24 05:34:58;;;;;;;11.85;8.45;;;;;;;4.62;88.14;99689.44;5014914;23;20212;-90
2022/01/24 05:37:02;;;;;;;13.45;8.98;;;;;;;4.64;87.25;99690.25;5039433;23;20181;-89
2022/01/24 05:39:05;;;;;;;11.93;8.75;;;;;;;4.68;86.77;99691.06;5013773;23;20178;-90
2022/01/24 05:41:09;;;;;;;11.73;7.80;;;;;;;4.69;86.60;99694.47;5038457;23;20674;-91
2022/01/24 05:43:12;;;;;;;9.90;8.20;;;;;;;4.70;87.62;99684.97;5015351;23;20207;-90
2022/01/24 05:45:15;;;;;;;9.48;8.40;;;;;;;4.76;86.70;99690.03;5038614;23;20180;-90
2022/01/24 05:47:19;;;;;;;10.18;7.75;;;;;;;4.77;86.53;99682.25;5015110;23;20238;-90
2022/01/24 05:49:22;;;;;;;12.07;8.45;;;;;;;4.78;86.45;99683.09;5014543;23;20277;-90
2022/01/24 05:51:28;;;;;;;9.27;8.18;;;;;;;4.78;86.14;99683.97;5087631;23;20187;-90
2022/01/24 05:53:31;;;;;;;10.48;8.20;;;;;;;4.79;86.29;99685.63;5038845;23;20510;-90
2022/01/24 05:55:35;;;;;;;9.95;8.65;;;;;;;4.86;87.00;99696.72;5063415;23;20717;-90
2022/01/24 05:57:38;;;;;;;10.18;8.60;;;;;;;4.86;86.72;99694.97;5039562;23;20627;-90
2022/01/24 05:59:41;;;;;;;10.88;8.20;;;;;;;4.87;86.90;99698.41;5038076;23;20642;-90
2022/01/24 06:01:44;;;;;;;13.90;10.88;;;;;;;4.82;87.36;99693.31;5062978;23;20189;-90
2022/01/24 06:03:48;;;;;;;13.10;9.75;;;;;;;4.85;86.78;99700.19;5088750;23;20566;-90
2022/01/24 06:05:51;;;;;;;11.93;9.27;;;;;;;4.81;86.88;99694.22;5038713;23;20177;-90
2022/01/24 06:07:56;;;;;;;9.52;8.18;;;;;;;4.74;86.44;99697.81;5038883;23;20241;-90
2022/01/24 06:09:59;;;;;;;11.00;7.88;;;;;;;4.71;86.61;99686.69;5088931;23;20184;-90
2022/01/24 06:12:02;;;;;;;8.77;7.55;;;;;;;4.66;86.19;99696.28;5039043;23;20269;-90
2022/01/24 06:14:06;;;;;;;9.80;7.80;;;;;;;4.61;85.58;99692.91;5037866;23;20202;-90
2022/01/24 06:16:09;;;;;;;9.18;7.32;;;;;;;4.60;86.21;99698.97;5038905;23;20261;-90
2022/01/24 06:18:12;;;;;;;8.13;6.90;;;;;;;4.51;85.86;99693.97;5062657;23;20177;-90
2022/01/24 06:20:18;;;;;;;8.55;7.30;;;;;;;4.52;86.52;99679.31;5061611;23;20197;-89
2022/01/24 06:22:21;;;;;;;10.38;7.65;;;;;;;4.45;86.58;99688.94;5063081;23;20506;-90
2022/01/24 06:24:26;;;;;;;11.65;8.30;;;;;;;4.47;85.36;99686.31;5039087;23;20181;-90
2022/01/24 06:26:46;;;;;;;10.80;8.30;;;;;;;4.44;86.42;99689.78;5064744;23;20181;-90
2022/01/24 06:28:49;;;;;;;13.02;10.38;;;;;;;4.46;85.56;99694.94;5064580;23;20184;-90
2022/01/24 06:30:53;;;;;;;16.10;11.63;;;;;;;4.48;86.48;99691.44;5038639;23;20268;-89
2022/01/24 06:32:56;;;;;;;12.50;9.45;;;;;;;4.50;85.98;99700.00;5090509;23;20186;-90
2022/01/24 06:34:59;;;;;;;17.35;10.25;;;;;;;4.51;86.16;99693.97;5039776;23;20186;-90
2022/01/24 06:37:03;;;;;;;12.77;8.45;;;;;;;4.57;86.71;99705.91;5088291;23;20237;-91
2022/01/24 06:39:07;;;;;;;10.68;8.30;;;;;;;4.59;86.58;99706.75;5089497;23;20184;-90
2022/01/24 06:41:12;;;;;;;9.00;7.28;;;;;;;4.59;86.08;99715.34;5039352;23;20236;-90
2022/01/24 06:43:15;;;;;;;10.05;7.90;;;;;;;4.57;85.39;99708.50;5064245;23;20205;-89
2022/01/24 06:45:18;;;;;;;11.93;8.75;;;;;;;4.56;85.53;99710.22;5039657;23;20185;-89
2022/01/24 06:47:22;;;;;;;16.02;10.88;;;;;;;4.57;84.88;99714.53;5040321;23;20182;-91
2022/01/24 06:49:26;;;;;;;17.10;11.63;;;;;;;4.52;85.44;99711.16;5064300;23;20518;-91
2022/01/24 06:51:30;;;;;;;33.92;18.40;;;;;;;4.55;85.25;99724.00;5041103;23;20189;-90
2022/01/24 06:53:33;;;;;;;24.25;13.75;;;;;;;4.55;85.60;99725.75;5040621;23;20181;-90
2022/01/24 06:55:36;;;;;;;36.75;17.50;;;;;;;4.56;85.88;99720.56;5039636;23;20264;-90
2022/01/24 06:57:41;;;;;;;16.98;11.38;;;;;;;4.51;84.56;99719.81;5065001;23;20179;-91
2022/01/24 06:59:47;;;;;;;10.75;8.10;;;;;;;4.52;84.88;99716.31;5060287;23;20260;-90
2022/01/24 07:01:54;;;;;;;7.63;6.82;;;;;;;4.49;84.81;99721.53;5066091;23;20228;-92
2022/01/24 07:03:58;;;;;;;10.95;7.20;;;;;;;4.53;85.09;99724.94;5068434;23;20526;-93
2022/01/24 07:06:01;;;;;;;11.18;8.68;;;;;;;4.50;84.74;99728.41;5043450;23;20178;-92
2022/01/24 07:08:05;;;;;;;13.77;9.05;;;;;;;4.50;84.53;99728.41;5043808;23;20211;-91
2022/01/24 07:10:09;;;;;;;16.75;9.82;;;;;;;4.54;84.27;99727.50;5041486;23;20193;-92
2022/01/24 07:12:30;;;;;;;11.43;8.05;;;;;;;4.46;84.07;99731.09;5067023;23;20191;-91
2022/01/24 07:14:35;;;;;;;9.00;7.82;;;;;;;4.51;84.63;99742.19;5040905;23;20615;-91
2022/01/24 07:17:01;;;;;;;12.32;9.10;;;;;;;4.53;84.45;99735.28;5041042;23;20658;-92
2022/01/24 07:19:03;;;;;;;7.95;6.68;;;;;;;4.50;84.72;99737.91;5064436;23;20255;-92
2022/01/24 07:21:07;;;;;;;10.63;8.43;;;;;;;4.56;84.71;99743.81;5040995;23;20208;-90
2022/01/24 07:23:11;;;;;;;8.88;7.97;;;;;;;4.55;85.00;99742.09;5040934;23;20181;-90
2022/01/24 07:25:18;;;;;;;9.40;8.38;;;;;;;4.55;84.96;99744.69;5041593;23;20181;-91
2022/01/24 07:27:22;;;;;;;9.55;7.50;;;;;;;4.55;83.96;99747.25;5090955;23;20518;-90
2022/01/24 07:29:25;;;;;;;15.48;10.40;;;;;;;4.59;85.05;99751.50;5041150;23;20181;-90
2022/01/24 07:31:29;;;;;;;12.23;8.10;;;;;;;4.61;83.79;99751.47;5041133;23;20201;-90
2022/01/24 07:33:33;;;;;;;11.82;8.52;;;;;;;4.62;83.82;99759.19;5040776;23;20178;-91
2022/01/24 07:35:37;;;;;;;16.45;11.48;;;;;;;4.66;84.15;99757.41;5041455;23;20181;-91
2022/01/24 07:37:41;;;;;;;15.18;10.02;;;;;;;4.66;83.71;99763.44;5067577;23;20538;-91
2022/01/24 07:39:46;;;;;;;11.20;8.45;;;;;;;4.65;83.40;99764.31;5041067;23;20181;-92
2022/01/24 07:41:50;;;;;;;7.88;7.05;;;;;;;4.63;83.85;99766.09;5088268;23;20731;-93
2022/01/24 07:43:54;;;;;;;12.75;8.90;;;;;;;4.67;83.74;99778.03;5037371;23;20260;-93
2022/01/24 07:45:57;;;;;;;12.93;9.82;;;;;;;4.64;83.79;99775.50;5037361;23;20180;-92
2022/01/24 07:48:02;;;;;;;10.15;8.50;;;;;;;4.64;83.74;99778.09;5065097;23;20185;-92
2022/01/24 07:50:09;;;;;;;10.48;8.10;;;;;;;4.65;83.09;99776.38;5063926;23;20201;-92
2022/01/24 07:52:12;;;;;;;8.43;7.55;;;;;;;4.63;83.40;99783.28;5066547;23;20184;-91
2022/01/24 07:54:15;;;;;;;9.80;8.40;;;;;;;4.66;83.44;99783.22;5064706;23;20185;-92
2022/01/24 07:56:19;;;;;;;10.70;8.88;;;;;;;4.73;83.43;99780.50;5066137;23;20193;-91
2022/01/24 07:58:22;;;;;;;10.00;8.77;;;;;;;4.90;83.55;99784.50;5092572;23;20176;-91
2022/01/24 08:00:26;;;;;;;11.88;9.20;;;;;;;5.18;83.22;99778.75;5091267;23;20184;-92
2022/01/24 08:02:33;;;;;;;13.07;9.48;;;;;;;5.50;83.14;99778.91;5041893;23;20196;-90
2022/01/24 08:04:38;;;;;;;12.35;9.35;;;;;;;5.78;82.38;99772.31;5061410;23;20177;-91
2022/01/24 08:06:41;;;;;;;10.23;9.02;;;;;;;6.00;80.93;99786.44;5040056;23;20568;-92
2022/01/24 08:08:44;;;;;;;11.30;8.60;;;;;;;6.13;80.49;99781.81;5039091;23;20277;-92
2022/01/24 08:10:47;;;;;;;10.60;7.95;;;;;;;6.25;79.91;99791.84;5039392;23;20217;-91
2022/01/24 08:12:50;;;;;;;9.27;7.32;;;;;;;6.33;78.74;99794.25;5040657;23;20204;-91
2022/01/24 08:14:54;;;;;;;8.38;6.90;;;;;;;6.41;78.62;99788.03;5039116;23;20205;-90
2022/01/24 08:16:57;;;;;;;7.53;6.82;;;;;;;6.47;77.48;99785.28;5035932;23;20192;-92
2022/01/24 08:19:00;;;;;;;8.38;7.07;;;;;;;6.54;77.96;99784.25;5041461;23;20702;-92
2022/01/24 08:21:06;;;;;;;7.63;6.82;;;;;;;6.66;77.72;99783.91;5060685;23;20185;-92
2022/01/24 08:23:10;;;;;;;20.20;15.18;;;;;;;6.74;77.28;99782.00;5037340;23;20690;-92
2022/01/24 08:25:15;;;;;;;10.57;7.30;;;;;;;6.87;77.31;99783.34;5040524;23;20249;-92
2022/01/24 08:27:19;;;;;;;8.52;7.13;;;;;;;6.90;77.33;99780.66;5043100;23;20186;-95
2022/01/24 08:29:28;;;;;;;8.23;7.43;;;;;;;7.04;77.81;99767.28;5052743;23;20557;-95
2022/01/24 08:31:32;;;;;;;8.65;7.75;;;;;;;7.14;76.50;99766.16;5045796;23;20182;-96
2022/01/24 08:33:50;;;;;;;9.77;8.35;;;;;;;7.17;76.13;99767.78;5046108;23;20174;-94
2022/01/24 08:36:22;;;;;;;13.88;9.77;;;;;;;7.22;75.72;99766.78;5069459;23;20169;-94
2022/01/24 08:38:26;;;;;;;16.70;10.90;;;;;;;7.35;77.23;99768.16;5045823;23;20498;-94
2022/01/24 08:40:32;;;;;;;9.05;7.25;;;;;;;7.44;75.41;99765.25;5068943;23;20173;-93
2022/01/24 08:42:40;;;;;;;13.90;9.93;;;;;;;7.53;76.12;99765.88;5069134;23;20197;-95
2022/01/24 08:47:10;;;;;;;7.30;6.50;;;;;;;7.63;74.61;99776.81;5045463;23;20177;-93
2022/01/24 08:49:34;;;;;;;6.70;5.88;;;;;;;7.63;74.26;99774.22;5046287;23;20177;-93
2022/01/24 08:51:39;;;;;;;6.97;6.28;;;;;;;7.64;73.29;99776.78;5046358;23;20178;-93
2022/01/24 08:54:03;;;;;;;7.93;6.70;;;;;;;7.66;74.46;99780.16;5045355;23;20170;-94
2022/01/24 08:56:07;;;;;;;7.10;6.40;;;;;;;7.64;72.90;99783.72;5046448;23;20174;-93
2022/01/24 08:58:13;;;;;;;6.78;6.05;;;;;;;7.52;73.46;99786.66;5069667;23;20188;-93
2022/01/24 09:00:17;;;;;;;7.85;6.20;;;;;;;7.43;73.22;99784.34;5072068;23;20213;-94
2022/01/24 09:02:20;;;;;;;8.52;5.88;;;;;;;7.41;74.15;99788.69;5045447;23;20202;-94
2022/01/24 09:04:24;;;;;;;8.68;6.18;;;;;;;7.35;74.69;99785.44;5066878;23;20176;-91
2022/01/24 09:06:29;;;;;;;8.20;5.47;;;;;;;7.32;74.21;99786.41;5040629;23;20177;-92
2022/01/24 09:08:34;;;;;;;6.18;5.55;;;;;;;7.36;74.13;99785.41;5045505;23;20654;-94
2022/01/24 09:10:40;;;;;;;6.85;6.00;;;;;;;7.34;73.59;99775.97;5045808;23;20268;-93
2022/01/24 09:12:43;;;;;;;7.05;6.35;;;;;;;7.38;74.63;99775.84;5046642;23;20726;-93
2022/01/24 09:14:47;;;;;;;6.30;5.68;;;;;;;7.44;74.40;99775.63;5045040;23;20170;-94
2022/01/24 09:16:51;;;;;;;8.57;7.40;;;;;;;7.47;73.59;99765.16;5045835;23;20177;-96
2022/01/24 09:19:19;;;;;;;6.90;6.13;;;;;;;7.54;74.65;99774.50;5045013;23;20174;-89
2022/01/24 09:21:23;;;;;;;6.97;6.28;;;;;;;7.53;73.19;99770.19;4990810;23;20909;-90
2022/01/24 09:23:27;;;;;;;8.88;8.07;;;;;;;7.43;74.09;99773.97;4944019;24;20207;-89
2022/01/24 09:25:31;;;;;;;8.10;7.28;;;;;;;7.45;74.65;99768.72;5015209;23;20205;-94
2022/01/24 09:27:34;;;;;;;11.50;9.45;;;;;;;7.52;73.48;99763.31;4943519;24;20721;-89
2022/01/24 09:29:37;;;;;;;8.98;7.32;;;;;;;7.45;74.33;99774.75;4942081;23;20646;-90
2022/01/24 09:31:41;;;;;;;10.52;7.45;;;;;;;7.53;75.71;99767.59;4943383;24;20183;-88
2022/01/24 09:33:44;;;;;;;10.13;8.60;;;;;;;7.66;73.79;99766.34;4944097;24;20176;-89
2022/01/24 09:35:47;;;;;;;12.95;10.77;;;;;;;7.78;74.91;99771.16;4990662;23;20255;-91
2022/01/24 09:37:50;;;;;;;7.15;6.45;;;;;;;7.81;74.47;99781.47;4992054;23;20182;-89
2022/01/24 09:39:54;;;;;;;7.25;6.55;;;;;;;7.85;74.28;99780.44;4942776;24;20278;-89
2022/01/24 09:42:02;;;;;;;18.10;15.15;;;;;;;7.93;74.91;99774.13;4967811;23;20183;-89
2022/01/24 09:44:08;;;;;;;10.38;8.10;;;;;;;7.88;74.20;99776.03;4966774;23;20277;-88
2022/01/24 09:46:12;;;;;;;9.40;7.85;;;;;;;7.82;73.78;99776.22;4966534;23;20179;-90
2022/01/24 09:48:16;;;;;;;7.78;6.55;;;;;;;7.87;74.39;99761.34;4945106;24;20195;-90
2022/01/24 09:50:21;;;;;;;8.73;6.95;;;;;;;8.04;74.22;99762.53;4942989;24;20188;-92
2022/01/24 09:52:24;;;;;;;6.18;5.57;;;;;;;8.06;73.93;99776.31;4941119;24;20185;-90
2022/01/24 09:54:27;;;;;;;8.82;7.60;;;;;;;8.08;73.95;99774.50;4967410;23;20209;-90
2022/01/24 09:56:31;;;;;;;8.57;6.28;;;;;;;8.13;73.42;99772.66;4942786;24;20241;-90
2022/01/24 09:58:40;;;;;;;6.55;5.95;;;;;;;7.99;72.68;99782.56;5015064;23;20268;-91
2022/01/24 10:00:43;;;;;;;8.07;6.47;;;;;;;7.98;74.64;99778.31;4967770;23;20191;-89
2022/01/24 10:02:49;;;;;;;8.00;6.65;;;;;;;8.11;74.94;99774.44;4967033;23;20261;-90
2022/01/24 10:04:53;;;;;;;6.15;5.55;;;;;;;8.20;73.46;99778.50;4966282;23;20190;-91
2022/01/24 10:07:01;;;;;;;6.45;5.78;;;;;;;8.10;72.84;99772.72;4994056;23;20277;-91
2022/01/24 10:09:08;;;;;;;8.95;6.38;;;;;;;8.04;73.88;99766.84;4943926;24;20177;-89
2022/01/24 10:11:17;;;;;;;8.93;5.97;;;;;;;7.95;72.94;99776.69;4966631;23;20692;-90
2022/01/24 10:18:07;;;;;;;8.27;7.03;;;;;;;7.88;72.74;99770.84;4968422;23;20204;-91
2022/01/24 10:20:24;;;;;;;8.18;6.45;;;;;;;7.95;72.90;99766.28;4993972;23;20187;-90
2022/01/24 10:22:27;;;;;;;6.53;5.75;;;;;;;8.00;72.52;99770.47;4946961;23;20236;-90
2022/01/24 10:24:36;;;;;;;8.32;6.07;;;;;;;7.99;74.31;99766.16;4994029;23;20179;-91
2022/01/24 10:26:39;;;;;;;8.55;6.68;;;;;;;7.96;73.50;99760.22;4970749;23;20183;-89
2022/01/24 10:28:44;;;;;;;7.35;5.78;;;;;;;7.96;74.15;99750.66;4945304;24;20509;-90
2022/01/24 10:30:52;;;;;;;9.52;7.90;;;;;;;8.00;73.71;99753.13;4967145;23;20266;-90
2022/01/24 10:32:56;;;;;;;6.50;5.60;;;;;;;8.15;74.55;99750.06;4944816;24;20183;-90
2022/01/24 10:35:21;;;;;;;6.70;6.00;;;;;;;8.20;73.44;99747.31;4967570;23;20207;-90
2022/01/24 10:37:25;;;;;;;6.90;5.50;;;;;;;8.18;73.66;99743.94;4967151;23;20228;-90
2022/01/24 10:39:32;;;;;;;6.13;5.22;;;;;;;8.15;73.80;99744.88;4966732;23;20183;-91
2022/01/24 10:41:53;;;;;;;6.53;5.75;;;;;;;8.24;74.32;99744.56;4943601;24;20186;-90
2022/01/24 10:43:56;;;;;;;8.18;6.10;;;;;;;8.48;74.17;99743.78;4968738;23;20207;-90
2022/01/24 10:46:24;;;;;;;7.30;5.80;;;;;;;8.49;72.61;99745.44;4991339;23;20592;-91
2022/01/24 10:48:30;;;;;;;6.55;5.47;;;;;;;8.35;71.43;99742.47;4946120;24;21169;-91
2022/01/24 10:50:33;;;;;;;6.78;5.03;;;;;;;8.14;73.44;99740.56;4967378;23;20214;-91
2022/01/24 10:52:36;;;;;;;5.30;4.65;;;;;;;8.07;72.70;99745.97;4967023;23;20187;-91
2022/01/24 10:54:39;;;;;;;5.50;4.90;;;;;;;8.03;72.30;99740.03;4968432;23;20611;-90
2022/01/24 10:56:44;;;;;;;7.25;5.07;;;;;;;8.04;73.33;99738.28;4968261;23;20535;-91
2022/01/24 10:58:47;;;;;;;6.28;4.88;;;;;;;8.13;72.63;99736.28;4968503;23;20759;-91
2022/01/24 11:00:52;;;;;;;5.03;4.53;;;;;;;8.06;71.72;99739.94;4943717;24;20180;-90
2022/01/24 11:02:59;;;;;;;5.88;4.72;;;;;;;7.96;72.89;99739.44;4990079;23;20230;-89
2022/01/24 11:05:11;;;;;;;5.85;4.40;;;;;;;7.81;72.67;99732.97;4967201;23;20187;-89
2022/01/24 11:07:23;;;;;;;5.78;5.28;;;;;;;7.77;73.97;99733.97;4992954;23;20179;-90